createdAt,value
2023-05-18T00:00:40.289Z,50.877213
2023-05-18T00:01:40.253Z,50.877201
2023-05-18T00:02:40.327Z,50.877190
2023-05-18T00:03:40.502Z,50.877197
2023-05-18T00:04:40.319Z,50.877201
2023-05-18T00:05:40.225Z,50.877205
2023-05-18T00:06:40.202Z,50.877197
2023-05-18T00:07:40.264Z,50.877228
2023-05-18T00:08:40.238Z,50.877205
2023-05-18T00:09:40.190Z,50.877193
2023-05-18T00:10:40.168Z,50.877209
2023-05-18T00:11:40.155Z,50.877216
2023-05-18T00:12:40.158Z,50.877163
2023-05-18T00:13:40.196Z,50.877277
2023-05-18T00:14:40.132Z,50.877205
2023-05-18T00:15:40.125Z,50.877216
2023-05-18T00:16:40.738Z,50.877167
2023-05-18T00:17:40.172Z,50.877174
2023-05-18T00:18:40.119Z,50.877197
2023-05-18T00:19:40.070Z,50.877182
2023-05-18T00:20:40.093Z,50.877159
2023-05-18T00:21:40.060Z,50.877182
2023-05-18T00:22:40.061Z,50.877182
2023-05-18T00:23:40.048Z,50.877216
2023-05-18T00:24:40.028Z,50.877190
2023-05-18T00:25:40.043Z,50.877197
2023-05-18T00:26:40.020Z,50.877140
2023-05-18T00:27:40.008Z,50.877171
2023-05-18T00:28:40.013Z,50.877182
2023-05-18T00:29:39.987Z,50.877182
2023-05-18T00:30:39.972Z,50.877224
2023-05-18T00:31:40.031Z,50.877216
2023-05-18T00:32:40.021Z,50.877224
2023-05-18T00:33:39.952Z,50.877193
2023-05-18T00:34:40.016Z,50.877205
2023-05-18T00:35:39.929Z,50.877232
2023-05-18T00:36:39.930Z,50.877216
2023-05-18T00:37:39.903Z,50.877205
2023-05-18T00:38:39.917Z,50.877209
2023-05-18T00:39:39.890Z,50.877224
2023-05-18T00:40:39.882Z,50.877243
2023-05-18T00:41:39.909Z,50.877201
2023-05-18T00:42:39.865Z,50.877232
2023-05-18T00:43:39.871Z,50.877216
2023-05-18T00:44:39.857Z,50.877232
2023-05-18T00:45:39.905Z,50.877216
2023-05-18T00:46:39.825Z,50.877213
2023-05-18T00:47:39.852Z,50.877220
2023-05-18T00:48:39.803Z,50.877197
2023-05-18T00:49:39.891Z,50.877228
2023-05-18T00:50:39.777Z,50.877243
2023-05-18T00:51:39.766Z,50.877239
2023-05-18T00:52:39.764Z,50.877239
2023-05-18T00:53:40.646Z,50.877174
2023-05-18T00:54:39.760Z,50.877151
2023-05-18T00:55:39.738Z,50.877205
2023-05-18T00:56:39.743Z,50.877186
2023-05-18T00:57:39.714Z,50.877151
2023-05-18T00:58:39.720Z,50.877140
2023-05-18T00:59:39.712Z,50.877171
2023-05-18T01:00:39.710Z,50.877213
2023-05-18T01:01:39.745Z,50.877232
2023-05-18T01:02:39.762Z,50.877232
2023-05-18T01:03:39.704Z,50.877235
2023-05-18T01:04:39.744Z,50.877174
2023-05-18T01:05:39.644Z,50.877193
2023-05-18T01:06:39.650Z,50.877190
2023-05-18T01:07:39.660Z,50.877274
2023-05-18T01:08:39.602Z,50.877361
2023-05-18T01:09:39.591Z,50.877258
2023-05-18T01:10:39.639Z,50.877197
2023-05-18T01:11:39.618Z,50.877106
2023-05-18T01:12:39.582Z,50.877144
2023-05-18T01:13:39.554Z,50.877098
2023-05-18T01:14:39.559Z,50.877090
2023-05-18T01:15:39.547Z,50.877148
2023-05-18T01:16:39.569Z,50.877308
2023-05-18T01:17:39.560Z,50.877186
2023-05-18T01:18:39.529Z,50.877178
2023-05-18T01:19:39.598Z,50.877190
2023-05-18T01:20:39.493Z,50.877186
2023-05-18T01:21:39.547Z,50.877174
2023-05-18T01:22:39.457Z,50.877193
2023-05-18T01:23:39.469Z,50.877186
2023-05-18T01:24:39.471Z,50.877174
2023-05-18T01:25:39.482Z,50.877178
2023-05-18T01:26:39.448Z,50.877167
2023-05-18T01:27:39.412Z,50.877140
2023-05-18T01:28:39.420Z,50.877167
2023-05-18T01:29:39.401Z,50.877174
2023-05-18T01:30:39.429Z,50.877178
2023-05-18T01:31:39.451Z,50.877163
2023-05-18T01:32:39.389Z,50.877171
2023-05-18T01:33:39.377Z,50.877171
2023-05-18T01:34:39.414Z,50.877186
2023-05-18T01:35:39.352Z,50.877205
2023-05-18T01:36:39.336Z,50.877190
2023-05-18T01:37:39.328Z,50.877178
2023-05-18T01:38:40.601Z,50.877197
2023-05-18T01:39:39.311Z,50.877213
2023-05-18T01:40:39.305Z,50.877209
2023-05-18T01:41:39.290Z,50.877186
2023-05-18T01:42:39.281Z,50.877201
2023-05-18T01:43:39.274Z,50.877193
2023-05-18T01:44:39.257Z,50.877205
2023-05-18T01:45:39.255Z,50.877216
2023-05-18T01:46:39.314Z,50.877201
2023-05-18T01:47:39.284Z,50.877182
2023-05-18T01:48:39.216Z,50.877159
2023-05-18T01:49:39.228Z,50.877163
2023-05-18T01:50:39.193Z,50.877163
2023-05-18T01:51:39.205Z,50.877178
2023-05-18T01:52:39.194Z,50.877174
2023-05-18T01:53:39.169Z,50.877205
2023-05-18T01:54:39.160Z,50.877205
2023-05-18T01:55:39.135Z,50.877190
2023-05-18T01:56:40.133Z,50.877186
2023-05-18T01:57:39.155Z,50.877178
2023-05-18T01:58:39.149Z,50.877213
2023-05-18T01:59:39.115Z,50.877186
2023-05-18T02:00:39.105Z,50.877209
2023-05-18T02:01:39.162Z,50.877205
2023-05-18T02:02:39.308Z,50.877178
2023-05-18T02:03:39.273Z,50.877171
2023-05-18T02:04:39.054Z,50.877178
2023-05-18T02:05:39.055Z,50.877171
2023-05-18T02:06:39.057Z,50.877155
2023-05-18T02:07:39.038Z,50.877163
2023-05-18T02:08:39.058Z,50.877174
2023-05-18T02:09:39.040Z,50.877167
2023-05-18T02:10:39.040Z,50.877178
2023-05-18T02:11:38.993Z,50.877167
2023-05-18T02:12:38.994Z,50.877155
2023-05-18T02:13:38.973Z,50.877155
2023-05-18T02:14:38.958Z,50.877159
2023-05-18T02:15:38.981Z,50.877171
2023-05-18T02:16:39.056Z,50.877178
2023-05-18T02:17:39.094Z,50.877174
2023-05-18T02:18:38.966Z,50.877167
2023-05-18T02:19:38.968Z,50.877163
2023-05-18T02:20:38.898Z,50.877167
2023-05-18T02:21:39.904Z,50.877178
2023-05-18T02:22:38.898Z,50.877178
2023-05-18T02:23:38.883Z,50.877174
2023-05-18T02:24:38.880Z,50.877178
2023-05-18T02:25:38.861Z,50.877182
2023-05-18T02:26:38.852Z,50.877193
2023-05-18T02:27:38.845Z,50.877186
2023-05-18T02:28:38.844Z,50.877178
2023-05-18T02:29:38.809Z,50.877182
2023-05-18T02:30:38.804Z,50.877178
2023-05-18T02:31:38.895Z,50.877171
2023-05-18T02:32:38.982Z,50.877178
2023-05-18T02:33:38.817Z,50.877174
2023-05-18T02:34:38.771Z,50.877151
2023-05-18T02:35:38.754Z,50.877155
2023-05-18T02:36:38.806Z,50.877132
2023-05-18T02:37:38.734Z,50.877155
2023-05-18T02:38:38.727Z,50.877171
2023-05-18T02:39:38.749Z,50.877190
2023-05-18T02:40:38.712Z,50.877190
2023-05-18T02:41:38.699Z,50.877171
2023-05-18T02:42:38.700Z,50.877174
2023-05-18T02:43:38.703Z,50.877174
2023-05-18T02:44:38.683Z,50.877178
2023-05-18T02:45:38.714Z,50.877190
2023-05-18T02:46:38.699Z,50.877186
2023-05-18T02:47:38.770Z,50.877182
2023-05-18T02:48:38.631Z,50.877182
2023-05-18T02:49:38.641Z,50.877171
2023-05-18T02:50:38.630Z,50.877159
2023-05-18T02:51:38.616Z,50.877163
2023-05-18T02:52:38.589Z,50.877182
2023-05-18T02:53:38.583Z,50.877197
2023-05-18T02:54:38.578Z,50.877201
2023-05-18T02:55:38.583Z,50.877159
2023-05-18T02:56:38.560Z,50.877163
2023-05-18T02:57:38.555Z,50.877174
2023-05-18T02:58:38.561Z,50.877167
2023-05-18T02:59:38.542Z,50.877167
2023-05-18T03:00:38.528Z,50.877163
2023-05-18T03:01:38.514Z,50.877155
2023-05-18T03:02:38.644Z,50.877174
2023-05-18T03:03:38.565Z,50.877144
2023-05-18T03:04:38.481Z,50.877174
2023-05-18T03:05:38.470Z,50.877167
2023-05-18T03:06:38.518Z,50.877171
2023-05-18T03:07:38.461Z,50.877159
2023-05-18T03:08:38.435Z,50.877167
2023-05-18T03:09:38.425Z,50.877167
2023-05-18T03:10:38.418Z,50.877171
2023-05-18T03:11:38.438Z,50.877193
2023-05-18T03:12:38.399Z,50.877155
2023-05-18T03:13:38.436Z,50.877140
2023-05-18T03:14:38.371Z,50.877155
2023-05-18T03:15:38.369Z,50.877163
2023-05-18T03:16:38.397Z,50.877174
2023-05-18T03:17:38.394Z,50.877155
2023-05-18T03:18:38.366Z,50.877151
2023-05-18T03:19:38.355Z,50.877144
2023-05-18T03:20:38.332Z,50.877148
2023-05-18T03:21:38.328Z,50.877121
2023-05-18T03:22:38.307Z,50.877148
2023-05-18T03:23:38.290Z,50.877140
2023-05-18T03:24:38.289Z,50.877155
2023-05-18T03:25:38.290Z,50.877136
2023-05-18T03:26:38.277Z,50.877140
2023-05-18T03:27:38.264Z,50.877193
2023-05-18T03:28:38.267Z,50.877178
2023-05-18T03:29:38.244Z,50.877174
2023-05-18T03:30:38.220Z,50.877182
2023-05-18T03:31:38.247Z,50.877190
2023-05-18T03:32:38.331Z,50.877209
2023-05-18T03:33:38.237Z,50.877205
2023-05-18T03:34:38.232Z,50.877216
2023-05-18T03:35:38.204Z,50.877205
2023-05-18T03:36:38.186Z,50.877155
2023-05-18T03:37:38.154Z,50.877167
2023-05-18T03:38:38.135Z,50.877159
2023-05-18T03:39:38.156Z,50.877197
2023-05-18T03:40:38.193Z,50.877171
2023-05-18T03:41:38.135Z,50.877182
2023-05-18T03:42:38.117Z,50.877178
2023-05-18T03:43:38.116Z,50.877182
2023-05-18T03:44:38.083Z,50.877190
2023-05-18T03:45:38.134Z,50.877171
2023-05-18T03:46:38.113Z,50.877163
2023-05-18T03:47:38.107Z,50.877193
2023-05-18T03:48:38.055Z,50.877190
2023-05-18T03:49:38.071Z,50.877197
2023-05-18T03:50:38.039Z,50.877205
2023-05-18T03:51:38.037Z,50.877190
2023-05-18T03:52:38.026Z,50.877159
2023-05-18T03:53:38.013Z,50.877182
2023-05-18T03:54:37.998Z,50.877182
2023-05-18T03:55:38.008Z,50.877171
2023-05-18T03:56:37.994Z,50.877182
2023-05-18T03:57:37.972Z,50.877209
2023-05-18T03:58:37.968Z,50.877201
2023-05-18T03:59:37.950Z,50.877182
2023-05-18T04:00:37.985Z,50.877197
2023-05-18T04:01:37.981Z,50.877159
2023-05-18T04:02:38.030Z,50.877167
2023-05-18T04:03:38.005Z,50.877209
2023-05-18T04:04:37.916Z,50.877228
2023-05-18T04:05:37.903Z,50.877178
2023-05-18T04:06:37.894Z,50.877224
2023-05-18T04:07:37.906Z,50.877171
2023-05-18T04:08:37.887Z,50.877213
2023-05-18T04:09:37.849Z,50.877148
2023-05-18T04:10:37.840Z,50.877182
2023-05-18T04:11:37.848Z,50.877205
2023-05-18T04:12:37.836Z,50.877163
2023-05-18T04:13:37.837Z,50.877148
2023-05-18T04:14:37.800Z,50.877155
2023-05-18T04:15:37.814Z,50.877129
2023-05-18T04:16:37.831Z,50.877205
2023-05-18T04:17:37.792Z,50.877174
2023-05-18T04:18:37.808Z,50.877224
2023-05-18T04:19:37.968Z,50.877197
2023-05-18T04:20:37.737Z,50.877186
2023-05-18T04:21:37.748Z,50.877167
2023-05-18T04:22:37.741Z,50.877186
2023-05-18T04:23:37.711Z,50.877167
2023-05-18T04:24:37.712Z,50.877262
2023-05-18T04:25:37.707Z,50.877247
2023-05-18T04:26:37.677Z,50.877258
2023-05-18T04:27:37.703Z,50.877220
2023-05-18T04:28:37.800Z,50.877251
2023-05-18T04:29:37.664Z,50.877171
2023-05-18T04:30:37.679Z,50.877190
2023-05-18T04:31:37.700Z,50.877209
2023-05-18T04:32:37.669Z,50.877266
2023-05-18T04:33:37.627Z,50.877235
2023-05-18T04:34:37.652Z,50.877117
2023-05-18T04:35:37.636Z,50.877186
2023-05-18T04:36:37.592Z,50.877277
2023-05-18T04:37:37.584Z,50.877274
2023-05-18T04:38:37.594Z,50.877193
2023-05-18T04:39:37.560Z,50.877224
2023-05-18T04:40:37.573Z,50.877274
2023-05-18T04:41:37.542Z,50.877327
2023-05-18T04:42:37.535Z,50.877270
2023-05-18T04:43:37.533Z,50.877243
2023-05-18T04:44:37.542Z,50.877281
2023-05-18T04:45:37.537Z,50.877224
2023-05-18T04:46:37.513Z,50.877186
2023-05-18T04:47:37.491Z,50.877239
2023-05-18T04:48:37.493Z,50.877281
2023-05-18T04:50:03.428Z,50.877197
2023-05-18T04:50:37.476Z,50.877243
2023-05-18T04:51:37.475Z,50.877262
2023-05-18T04:52:37.462Z,50.877140
2023-05-18T04:53:37.460Z,50.877205
2023-05-18T04:54:37.431Z,50.877178
2023-05-18T04:55:37.441Z,50.877243
2023-05-18T04:56:37.421Z,50.877243
2023-05-18T04:57:37.412Z,50.877243
2023-05-18T04:58:37.395Z,50.877243
2023-05-18T04:59:37.492Z,50.877243
2023-05-18T05:00:37.375Z,50.877243
2023-05-18T05:01:37.376Z,50.877243
2023-05-18T05:02:37.377Z,50.877243
2023-05-18T05:03:37.478Z,50.877243
2023-05-18T05:04:37.362Z,50.877243
2023-05-18T05:05:37.339Z,50.877392
2023-05-18T05:06:37.331Z,50.877319
2023-05-18T05:07:37.337Z,50.877232
2023-05-18T05:08:37.297Z,50.877235
2023-05-18T05:09:37.282Z,50.877213
2023-05-18T05:10:37.312Z,50.877220
2023-05-18T05:11:37.255Z,50.877216
2023-05-18T05:12:37.300Z,50.877220
2023-05-18T05:13:37.244Z,50.877209
2023-05-18T05:14:37.215Z,50.877201
2023-05-18T05:15:37.259Z,50.877201
2023-05-18T05:16:37.206Z,50.877197
2023-05-18T05:17:37.257Z,50.877216
2023-05-18T05:18:37.241Z,50.877216
2023-05-18T05:19:37.189Z,50.877205
2023-05-18T05:20:37.166Z,50.877209
2023-05-18T05:21:37.168Z,50.877216
2023-05-18T05:22:37.181Z,50.877209
2023-05-18T05:23:37.191Z,50.877193
2023-05-18T05:24:37.160Z,50.877186
2023-05-18T05:25:37.128Z,50.877197
2023-05-18T05:26:37.125Z,50.877201
2023-05-18T05:27:37.094Z,50.877190
2023-05-18T05:28:37.085Z,50.877167
2023-05-18T05:29:37.109Z,50.877186
2023-05-18T05:30:37.093Z,50.877182
2023-05-18T05:31:38.149Z,50.877171
2023-05-18T05:32:37.195Z,50.877174
2023-05-18T05:33:37.056Z,50.877163
2023-05-18T05:34:37.055Z,50.877174
2023-05-18T05:35:37.419Z,50.877163
2023-05-18T05:36:37.010Z,50.877144
2023-05-18T05:37:37.000Z,50.877125
2023-05-18T05:38:36.985Z,50.877144
2023-05-18T05:39:36.974Z,50.877159
2023-05-18T05:40:36.979Z,50.877159
2023-05-18T05:41:36.961Z,50.877182
2023-05-18T05:42:36.949Z,50.877186
2023-05-18T05:43:36.934Z,50.877167
2023-05-18T05:44:36.922Z,50.877190
2023-05-18T05:45:36.952Z,50.877205
2023-05-18T05:46:36.978Z,50.877151
2023-05-18T05:47:36.912Z,50.877174
2023-05-18T05:48:36.883Z,50.877186
2023-05-18T05:49:36.868Z,50.877193
2023-05-18T05:50:37.077Z,50.877186
2023-05-18T05:51:36.882Z,50.877178
2023-05-18T05:52:36.864Z,50.877163
2023-05-18T05:53:36.828Z,50.877163
2023-05-18T05:54:36.828Z,50.877163
2023-05-18T05:55:36.804Z,50.877136
2023-05-18T05:56:36.799Z,50.877121
2023-05-18T05:57:36.806Z,50.877148
2023-05-18T05:58:36.772Z,50.877190
2023-05-18T05:59:37.784Z,50.877182
2023-05-18T06:00:36.829Z,50.877163
2023-05-18T06:01:36.786Z,50.877171
2023-05-18T06:02:36.903Z,50.877136
2023-05-18T06:03:36.785Z,50.877171
2023-05-18T06:04:36.837Z,50.877182
2023-05-18T06:05:36.714Z,50.877201
2023-05-18T06:06:36.725Z,50.877220
2023-05-18T06:07:36.699Z,50.877197
2023-05-18T06:08:36.697Z,50.877159
2023-05-18T06:09:36.681Z,50.877075
2023-05-18T06:10:36.700Z,50.877163
2023-05-18T06:11:36.682Z,50.877159
2023-05-18T06:12:36.692Z,50.877178
2023-05-18T06:13:36.642Z,50.877171
2023-05-18T06:14:36.677Z,50.877197
2023-05-18T06:15:36.609Z,50.877186
2023-05-18T06:16:37.671Z,50.877148
2023-05-18T06:17:36.618Z,50.877163
2023-05-18T06:18:36.737Z,50.877159
2023-05-18T06:19:36.586Z,50.877136
2023-05-18T06:20:36.580Z,50.877197
2023-05-18T06:21:36.561Z,50.877171
2023-05-18T06:22:36.591Z,50.877190
2023-05-18T06:23:36.866Z,50.877151
2023-05-18T06:24:36.532Z,50.877125
2023-05-18T06:25:36.536Z,50.877144
2023-05-18T06:26:36.502Z,50.877110
2023-05-18T06:27:36.507Z,50.877151
2023-05-18T06:28:36.502Z,50.877190
2023-05-18T06:29:36.493Z,50.877136
2023-05-18T06:30:36.463Z,50.877209
2023-05-18T06:31:36.538Z,50.877239
2023-05-18T06:32:36.468Z,50.877228
2023-05-18T06:33:36.526Z,50.877186
2023-05-18T06:34:36.432Z,50.877197
2023-05-18T06:35:36.420Z,50.877186
2023-05-18T06:36:36.432Z,50.877117
2023-05-18T06:37:36.400Z,50.877182
2023-05-18T06:38:36.392Z,50.877182
2023-05-18T06:39:36.433Z,50.877159
2023-05-18T06:40:36.375Z,50.877224
2023-05-18T06:41:36.391Z,50.877197
2023-05-18T06:42:36.392Z,50.877155
2023-05-18T06:43:36.353Z,50.877155
2023-05-18T06:44:36.358Z,50.877113
2023-05-18T06:45:37.499Z,50.877182
2023-05-18T06:46:37.418Z,50.877201
2023-05-18T06:47:36.309Z,50.877201
2023-05-18T06:48:36.306Z,50.877201
2023-05-18T06:49:36.312Z,50.877182
2023-05-18T06:50:36.359Z,50.877213
2023-05-18T06:51:36.268Z,50.877190
2023-05-18T06:52:36.268Z,50.877197
2023-05-18T06:53:36.267Z,50.877239
2023-05-18T06:54:36.254Z,50.877243
2023-05-18T06:55:36.233Z,50.877193
2023-05-18T06:56:36.226Z,50.877190
2023-05-18T06:57:36.252Z,50.877205
2023-05-18T06:58:36.207Z,50.877235
2023-05-18T06:59:36.190Z,50.877205
2023-05-18T07:00:36.203Z,50.877178
2023-05-18T07:01:36.203Z,50.877174
2023-05-18T07:02:36.195Z,50.877182
2023-05-18T07:03:36.220Z,50.877209
2023-05-18T07:04:36.155Z,50.877216
2023-05-18T07:05:38.601Z,50.877178
2023-05-18T07:06:37.133Z,50.877193
2023-05-18T07:07:36.144Z,50.877182
2023-05-18T07:08:36.120Z,50.877205
2023-05-18T07:09:36.116Z,50.877258
2023-05-18T07:10:36.093Z,50.877239
2023-05-18T07:11:36.091Z,50.877197
2023-05-18T07:12:36.058Z,50.877182
2023-05-18T07:13:36.048Z,50.877163
2023-05-18T07:14:36.069Z,50.877174
2023-05-18T07:15:36.059Z,50.877201
2023-05-18T07:16:36.049Z,50.877205
2023-05-18T07:17:36.050Z,50.877220
2023-05-18T07:18:36.057Z,50.877201
2023-05-18T07:19:36.038Z,50.877201
2023-05-18T07:20:35.993Z,50.877205
2023-05-18T07:21:35.971Z,50.877224
2023-05-18T07:22:35.965Z,50.877216
2023-05-18T07:23:35.967Z,50.877224
2023-05-18T07:24:35.975Z,50.877232
2023-05-18T07:25:35.930Z,50.877232
2023-05-18T07:26:35.937Z,50.877220
2023-05-18T07:27:35.908Z,50.877293
2023-05-18T07:28:35.907Z,50.877251
2023-05-18T07:29:35.936Z,50.877289
2023-05-18T07:30:35.903Z,50.877266
2023-05-18T07:31:35.880Z,50.877125
2023-05-18T07:32:35.900Z,50.877090
2023-05-18T07:33:35.860Z,50.877155
2023-05-18T07:34:35.895Z,50.877213
2023-05-18T07:35:35.853Z,50.877243
2023-05-18T07:36:35.873Z,50.877239
2023-05-18T07:37:35.824Z,50.877197
2023-05-18T07:38:35.821Z,50.877220
2023-05-18T07:39:35.810Z,50.877254
2023-05-18T07:40:35.839Z,50.877316
2023-05-18T07:41:35.808Z,50.877277
2023-05-18T07:42:35.768Z,50.877182
2023-05-18T07:43:35.758Z,50.877216
2023-05-18T07:44:35.809Z,50.877182
2023-05-18T07:45:35.749Z,50.877251
2023-05-18T07:46:35.767Z,50.877068
2023-05-18T07:47:35.759Z,50.877064
2023-05-18T07:48:35.736Z,50.877064
2023-05-18T07:49:35.719Z,50.877094
2023-05-18T07:50:35.737Z,50.877094
2023-05-18T07:51:35.695Z,50.877266
2023-05-18T07:52:35.681Z,50.877167
2023-05-18T07:53:35.760Z,50.877140
2023-05-18T07:54:35.761Z,50.877304
2023-05-18T07:55:35.650Z,50.877140
2023-05-18T07:56:35.663Z,50.877140
2023-05-18T07:57:35.635Z,50.877140
2023-05-18T07:58:35.724Z,50.877140
2023-05-18T07:59:35.615Z,50.877140
2023-05-18T08:00:35.600Z,50.877140
2023-05-18T08:01:35.647Z,50.877125
2023-05-18T08:02:35.660Z,50.877132
2023-05-18T08:03:35.659Z,50.877316
2023-05-18T08:04:35.578Z,50.877316
2023-05-18T08:05:35.556Z,50.877228
2023-05-18T08:06:35.553Z,50.877167
2023-05-18T08:07:35.548Z,50.877155
2023-05-18T08:08:35.541Z,50.877155
2023-05-18T08:09:35.522Z,50.877155
2023-05-18T08:10:35.527Z,50.877186
2023-05-18T08:11:35.497Z,50.877186
2023-05-18T08:12:35.490Z,50.877182
2023-05-18T08:13:35.565Z,50.877190
2023-05-18T08:14:35.481Z,50.877171
2023-05-18T08:15:35.581Z,50.877163
2023-05-18T08:16:35.440Z,50.877136
2023-05-18T08:17:35.496Z,50.877148
2023-05-18T08:18:35.458Z,50.877140
2023-05-18T08:19:35.422Z,50.877136
2023-05-18T08:20:35.470Z,50.877148
2023-05-18T08:21:35.404Z,50.877148
2023-05-18T08:22:35.395Z,50.877167
2023-05-18T08:23:35.381Z,50.877151
2023-05-18T08:24:35.381Z,50.877163
2023-05-18T08:25:35.358Z,50.877163
2023-05-18T08:26:35.394Z,50.877190
2023-05-18T08:27:35.338Z,50.877186
2023-05-18T08:28:35.368Z,50.877193
2023-05-18T08:29:35.338Z,50.877224
2023-05-18T08:30:35.356Z,50.877197
2023-05-18T08:31:35.344Z,50.877201
2023-05-18T08:32:35.324Z,50.877186
2023-05-18T08:33:35.293Z,50.877186
2023-05-18T08:34:35.267Z,50.877174
2023-05-18T08:35:35.249Z,50.877171
2023-05-18T08:36:35.267Z,50.877182
2023-05-18T08:37:35.255Z,50.877197
2023-05-18T08:38:35.257Z,50.877209
2023-05-18T08:39:35.231Z,50.877201
2023-05-18T08:40:35.217Z,50.877193
2023-05-18T08:41:35.204Z,50.877190
2023-05-18T08:42:48.632Z,50.877182
2023-05-18T08:43:37.216Z,50.877178
2023-05-18T08:44:35.167Z,50.877174
2023-05-18T08:45:35.195Z,50.877174
2023-05-18T08:46:35.155Z,50.877167
2023-05-18T08:47:35.189Z,50.877174
2023-05-18T08:48:35.208Z,50.877171
2023-05-18T08:49:35.133Z,50.877190
2023-05-18T08:50:35.152Z,50.877182
2023-05-18T08:51:35.095Z,50.877193
2023-05-18T08:52:35.085Z,50.877186
2023-05-18T08:53:35.087Z,50.877201
2023-05-18T08:54:35.074Z,50.877197
2023-05-18T08:55:35.054Z,50.877193
2023-05-18T08:56:36.116Z,50.877178
2023-05-18T08:57:35.036Z,50.877193
2023-05-18T08:58:35.050Z,50.877197
2023-05-18T08:59:35.043Z,50.877197
2023-05-18T09:00:35.345Z,50.877178
2023-05-18T09:01:35.082Z,50.877171
2023-05-18T09:02:35.050Z,50.877186
2023-05-18T09:03:34.996Z,50.877159
2023-05-18T09:04:35.029Z,50.877178
2023-05-18T09:05:35.278Z,50.877129
2023-05-18T09:06:34.999Z,50.877167
2023-05-18T09:07:34.960Z,50.877167
2023-05-18T09:08:34.931Z,50.877159
2023-05-18T09:09:34.931Z,50.877171
2023-05-18T09:10:34.917Z,50.877197
2023-05-18T09:11:34.899Z,50.877155
2023-05-18T09:12:34.900Z,50.877171
2023-05-18T09:13:34.892Z,50.877125
2023-05-18T09:14:34.880Z,50.877159
2023-05-18T09:15:34.848Z,50.877167
2023-05-18T09:16:34.984Z,50.877182
2023-05-18T09:17:34.879Z,50.877190
2023-05-18T09:18:34.860Z,50.877174
2023-05-18T09:19:34.841Z,50.877148
2023-05-18T09:20:34.845Z,50.877155
2023-05-18T09:21:34.806Z,50.877151
2023-05-18T09:22:34.803Z,50.877159
2023-05-18T09:23:34.802Z,50.877159
2023-05-18T09:24:34.805Z,50.877167
2023-05-18T09:25:34.774Z,50.877159
2023-05-18T09:26:34.744Z,50.877159
2023-05-18T09:27:34.739Z,50.877163
2023-05-18T09:28:34.755Z,50.877178
2023-05-18T09:29:34.728Z,50.877151
2023-05-18T09:30:34.784Z,50.877171
2023-05-18T09:31:34.754Z,50.877171
2023-05-18T09:32:34.758Z,50.877167
2023-05-18T09:33:34.746Z,50.877178
2023-05-18T09:34:34.681Z,50.877174
2023-05-18T09:35:34.953Z,50.877174
2023-05-18T09:36:34.713Z,50.877178
2023-05-18T09:37:34.642Z,50.877186
2023-05-18T09:38:34.642Z,50.877193
2023-05-18T09:39:34.627Z,50.877197
2023-05-18T09:40:34.672Z,50.877174
2023-05-18T09:41:34.598Z,50.877182
2023-05-18T09:42:34.609Z,50.877171
2023-05-18T09:43:34.600Z,50.877182
2023-05-18T09:44:34.587Z,50.877174
2023-05-18T09:45:34.597Z,50.877201
2023-05-18T09:46:34.608Z,50.877205
2023-05-18T09:47:34.587Z,50.877201
2023-05-18T09:48:34.542Z,50.877213
2023-05-18T09:49:34.550Z,50.877197
2023-05-18T09:50:34.526Z,50.877197
2023-05-18T09:51:34.521Z,50.877205
2023-05-18T09:52:34.512Z,50.877197
2023-05-18T09:53:34.508Z,50.877201
2023-05-18T09:54:34.513Z,50.877213
2023-05-18T09:55:34.501Z,50.877178
2023-05-18T09:56:34.469Z,50.877182
2023-05-18T09:57:34.469Z,50.877190
2023-05-18T09:58:34.482Z,50.877171
2023-05-18T09:59:34.444Z,50.877201
2023-05-18T10:00:34.513Z,50.877159
2023-05-18T10:01:34.469Z,50.877174
2023-05-18T10:02:34.483Z,50.877171
2023-05-18T10:03:34.452Z,50.877182
2023-05-18T10:04:34.421Z,50.877190
2023-05-18T10:05:36.123Z,50.877186
2023-05-18T10:06:35.403Z,50.877193
2023-05-18T10:07:34.411Z,50.877190
2023-05-18T10:08:34.376Z,50.877186
2023-05-18T10:09:34.339Z,50.877178
2023-05-18T10:10:34.370Z,50.877209
2023-05-18T10:11:34.412Z,50.877193
2023-05-18T10:12:34.329Z,50.877201
2023-05-18T10:13:34.336Z,50.877205
2023-05-18T10:14:34.300Z,50.877216
2023-05-18T10:15:34.308Z,50.877209
2023-05-18T10:16:34.334Z,50.877182
2023-05-18T10:17:34.416Z,50.877193
2023-05-18T10:18:34.279Z,50.877220
2023-05-18T10:19:34.263Z,50.877197
2023-05-18T10:20:34.277Z,50.877182
2023-05-18T10:21:34.248Z,50.877171
2023-05-18T10:22:34.243Z,50.877178
2023-05-18T10:23:34.345Z,50.877163
2023-05-18T10:24:34.234Z,50.877243
2023-05-18T10:25:34.215Z,50.877270
2023-05-18T10:26:34.209Z,50.877274
2023-05-18T10:27:34.179Z,50.877213
2023-05-18T10:28:35.213Z,50.877285
2023-05-18T10:29:34.206Z,50.877285
2023-05-18T10:30:34.285Z,50.877190
2023-05-18T10:31:34.265Z,50.877144
2023-05-18T10:32:34.149Z,50.877140
2023-05-18T10:33:34.236Z,50.877167
2023-05-18T10:34:34.103Z,50.877136
2023-05-18T10:35:34.146Z,50.877148
2023-05-18T10:36:34.096Z,50.877071
2023-05-18T10:37:34.067Z,50.877113
2023-05-18T10:38:34.080Z,50.877201
2023-05-18T10:39:34.070Z,50.877155
2023-05-18T10:40:34.109Z,50.877182
2023-05-18T10:41:34.042Z,50.877163
2023-05-18T10:42:34.053Z,50.877213
2023-05-18T10:43:34.024Z,50.877171
2023-05-18T10:44:34.020Z,50.876892
2023-05-18T10:45:34.014Z,50.876873
2023-05-18T10:46:34.229Z,50.877090
2023-05-18T10:47:34.220Z,50.877148
2023-05-18T10:48:33.993Z,50.877171
2023-05-18T10:49:33.975Z,50.877140
2023-05-18T10:51:05.864Z,50.877148
2023-05-18T10:51:34.602Z,50.877136
2023-05-18T10:52:33.983Z,50.877136
2023-05-18T10:53:33.931Z,50.877102
2023-05-18T10:54:33.914Z,50.877106
2023-05-18T10:55:33.925Z,50.877121
2023-05-18T10:56:33.905Z,50.877102
2023-05-18T10:57:33.917Z,50.877129
2023-05-18T10:58:33.869Z,50.877064
2023-05-18T10:59:33.873Z,50.877132
2023-05-18T11:00:33.899Z,50.877106
2023-05-18T11:01:33.908Z,50.877113
2023-05-18T11:02:33.842Z,50.877129
2023-05-18T11:03:33.856Z,50.877148
2023-05-18T11:04:33.875Z,50.877151
2023-05-18T11:05:33.805Z,50.877159
2023-05-18T11:06:33.779Z,50.877155
2023-05-18T11:07:33.800Z,50.877151
2023-05-18T11:08:33.787Z,50.877136
2023-05-18T11:09:33.782Z,50.877148
2023-05-18T11:10:33.747Z,50.877140
2023-05-18T11:11:33.753Z,50.877132
2023-05-18T11:12:33.750Z,50.877136
2023-05-18T11:13:33.733Z,50.877148
2023-05-18T11:14:33.765Z,50.877167
2023-05-18T11:15:33.712Z,50.877155
2023-05-18T11:16:33.757Z,50.877155
2023-05-18T11:17:33.737Z,50.877136
2023-05-18T11:18:33.714Z,50.877121
2023-05-18T11:19:33.653Z,50.877113
2023-05-18T11:20:33.669Z,50.877132
2023-05-18T11:21:33.636Z,50.877106
2023-05-18T11:22:33.643Z,50.877121
2023-05-18T11:23:33.626Z,50.877117
2023-05-18T11:24:33.625Z,50.877060